createdAt,value
2023-04-27T00:02:23.475Z,6.80
2023-04-27T00:04:53.600Z,6.68
2023-04-27T00:07:22.191Z,6.62
2023-04-27T00:09:51.864Z,6.62
2023-04-27T00:12:20.180Z,6.66
2023-04-27T00:14:48.437Z,6.55
2023-04-27T00:17:16.701Z,6.73
2023-04-27T00:19:45.132Z,6.74
2023-04-27T00:22:14.924Z,6.59
2023-04-27T00:24:43.231Z,6.64
2023-04-27T00:27:13.395Z,6.55
2023-04-27T00:29:42.854Z,6.55
2023-04-27T00:32:11.312Z,6.46
2023-04-27T00:34:39.657Z,6.55
2023-04-27T00:37:07.918Z,6.58
2023-04-27T00:39:37.586Z,6.55
2023-04-27T00:42:05.886Z,6.44
2023-04-27T00:44:34.171Z,6.39
2023-04-27T00:47:02.413Z,6.39
2023-04-27T00:49:30.701Z,6.34
2023-04-27T00:51:59.085Z,6.40
2023-04-27T00:54:27.648Z,6.39
2023-04-27T00:56:57.897Z,6.39
2023-04-27T00:59:26.672Z,6.35
2023-04-27T01:01:56.100Z,6.34
2023-04-27T01:04:24.790Z,6.29
2023-04-27T01:06:53.569Z,6.21
2023-04-27T01:09:21.880Z,6.21
2023-04-27T01:11:50.333Z,6.21
2023-04-27T01:14:19.935Z,6.15
2023-04-27T01:16:48.386Z,6.14
2023-04-27T01:19:16.717Z,6.17
2023-04-27T01:21:45.207Z,6.12
2023-04-27T01:24:14.877Z,6.13
2023-04-27T01:26:43.152Z,6.16
2023-04-27T01:29:11.675Z,6.11
2023-04-27T01:31:40.223Z,6.14
2023-04-27T01:34:08.557Z,6.12
2023-04-27T01:36:37.158Z,6.12
2023-04-27T01:39:09.094Z,6.10
2023-04-27T01:41:38.717Z,6.11
2023-04-27T01:44:07.116Z,6.10
2023-04-27T01:46:35.522Z,6.10
2023-04-27T01:49:04.174Z,6.07
2023-04-27T01:51:32.810Z,6.04
2023-04-27T01:54:01.116Z,6.10
2023-04-27T01:56:29.433Z,6.03
2023-04-27T01:58:59.059Z,6.04
2023-04-27T02:01:28.147Z,5.98
2023-04-27T02:03:57.044Z,5.98
2023-04-27T02:06:25.419Z,5.98
2023-04-27T02:08:53.633Z,5.98
2023-04-27T02:11:22.216Z,5.90
2023-04-27T02:13:50.447Z,5.90
2023-04-27T02:16:20.269Z,5.86
2023-04-27T02:18:49.093Z,5.91
2023-04-27T02:21:17.329Z,5.94
2023-04-27T02:23:45.613Z,5.89
2023-04-27T02:26:17.977Z,5.86
2023-04-27T02:28:46.327Z,5.84
2023-04-27T02:31:15.590Z,5.82
2023-04-27T02:33:45.343Z,5.82
2023-04-27T02:36:13.583Z,5.81
2023-04-27T02:38:41.846Z,5.81
2023-04-27T02:41:10.094Z,5.83
2023-04-27T02:43:38.350Z,5.82
2023-04-27T02:46:06.775Z,5.78
2023-04-27T02:48:35.100Z,5.73
2023-04-27T02:51:06.075Z,5.78
2023-04-27T02:53:34.386Z,5.78
2023-04-27T02:56:02.862Z,5.80
2023-04-27T02:58:31.278Z,5.78
2023-04-27T03:00:59.564Z,5.80
2023-04-27T03:03:27.975Z,5.73
2023-04-27T03:05:56.323Z,5.71
2023-04-27T03:08:25.973Z,5.67
2023-04-27T03:10:54.200Z,5.63
2023-04-27T03:13:22.485Z,5.64
2023-04-27T03:15:50.765Z,5.61
2023-04-27T03:18:19.173Z,5.65
2023-04-27T03:20:47.426Z,5.65
2023-04-27T03:23:15.688Z,5.65
2023-04-27T03:25:45.294Z,5.73
2023-04-27T03:28:13.563Z,5.65
2023-04-27T03:30:42.147Z,5.63
2023-04-27T03:33:10.468Z,5.62
2023-04-27T03:35:38.693Z,5.58
2023-04-27T03:38:06.965Z,5.58
2023-04-27T03:40:35.240Z,5.60
2023-04-27T03:43:04.817Z,5.57
2023-04-27T03:45:33.105Z,5.56
2023-04-27T03:48:02.506Z,5.54
2023-04-27T03:50:30.867Z,5.60
2023-04-27T03:52:59.150Z,5.53
2023-04-27T03:55:27.506Z,5.63
2023-04-27T03:57:55.967Z,5.52
2023-04-27T04:00:25.890Z,5.45
2023-04-27T04:02:54.425Z,5.43
2023-04-27T04:05:22.922Z,5.43
2023-04-27T04:07:51.447Z,5.45
2023-04-27T04:10:19.956Z,5.50
2023-04-27T04:12:48.209Z,5.55
2023-04-27T04:15:16.596Z,5.44
2023-04-27T04:17:47.374Z,5.43
2023-04-27T04:20:16.149Z,5.38
2023-04-27T04:22:44.463Z,5.43
2023-04-27T04:25:12.938Z,5.39
2023-04-27T04:27:41.695Z,5.45
2023-04-27T04:30:10.658Z,5.47
2023-04-27T04:32:39.034Z,5.47
2023-04-27T04:35:09.271Z,5.44
2023-04-27T04:37:37.673Z,5.46
2023-04-27T04:40:09.612Z,5.50
2023-04-27T04:42:38.464Z,5.55
2023-04-27T04:45:07.989Z,5.55
2023-04-27T04:47:36.934Z,5.60
2023-04-27T04:50:05.986Z,5.60
2023-04-27T04:52:37.062Z,5.69
2023-04-27T04:55:06.188Z,5.64
2023-04-27T04:57:34.496Z,5.73
2023-04-27T05:00:03.937Z,5.80
2023-04-27T05:02:32.505Z,5.76
2023-04-27T05:05:00.918Z,5.82
2023-04-27T05:07:29.245Z,5.84
2023-04-27T05:09:58.977Z,5.73
2023-04-27T05:12:27.302Z,5.72
2023-04-27T05:14:55.613Z,5.77
2023-04-27T05:17:23.947Z,5.73
2023-04-27T05:19:52.195Z,5.75
2023-04-27T05:22:20.550Z,5.70
2023-04-27T05:24:48.872Z,5.79
2023-04-27T05:27:18.489Z,5.90
2023-04-27T05:29:46.920Z,5.79
2023-04-27T05:32:15.298Z,5.78
2023-04-27T05:34:43.902Z,5.85
2023-04-27T05:37:13.167Z,5.85
2023-04-27T05:39:42.304Z,5.89
2023-04-27T05:42:10.658Z,5.81
2023-04-27T05:44:40.647Z,5.87
2023-04-27T05:47:09.011Z,5.84
2023-04-27T05:49:37.502Z,5.91
2023-04-27T05:52:05.947Z,5.87
2023-04-27T05:54:34.225Z,5.87
2023-04-27T05:57:02.513Z,5.86
2023-04-27T05:59:30.813Z,5.83
2023-04-27T06:02:00.499Z,5.92
2023-04-27T06:04:29.748Z,5.87
2023-04-27T06:06:58.092Z,5.91
2023-04-27T06:09:26.449Z,6.03
2023-04-27T06:11:54.691Z,6.16
2023-04-27T06:14:22.981Z,6.02
2023-04-27T06:16:51.249Z,6.02
2023-04-27T06:19:21.000Z,5.95
2023-04-27T06:21:49.344Z,5.99
2023-04-27T06:24:17.922Z,6.14
2023-04-27T06:26:46.219Z,6.07
2023-04-27T06:29:14.728Z,6.07
2023-04-27T06:31:43.220Z,6.08
2023-04-27T06:34:11.573Z,6.06
2023-04-27T06:36:41.303Z,6.08
2023-04-27T06:39:09.571Z,6.11
2023-04-27T06:41:37.891Z,6.09
2023-04-27T06:44:06.668Z,6.22
2023-04-27T06:46:35.181Z,6.24
2023-04-27T06:49:03.554Z,6.24
2023-04-27T06:51:31.812Z,6.25
2023-04-27T06:54:01.452Z,6.31
2023-04-27T06:56:29.791Z,6.39
2023-04-27T06:58:58.039Z,6.55
2023-04-27T07:01:26.523Z,6.59
2023-04-27T07:03:55.273Z,6.48
2023-04-27T07:06:25.557Z,6.57
2023-04-27T07:08:53.899Z,6.57
2023-04-27T07:11:23.898Z,6.65
2023-04-27T07:13:52.217Z,6.71
2023-04-27T07:16:20.919Z,6.72
2023-04-27T07:18:49.375Z,6.83
2023-04-27T07:21:17.658Z,6.92
2023-04-27T07:23:46.473Z,7.08
2023-04-27T07:26:14.745Z,6.98
2023-04-27T07:28:44.519Z,6.92
2023-04-27T07:31:13.004Z,6.88
2023-04-27T07:33:41.283Z,6.84
2023-04-27T07:36:09.945Z,6.87
2023-04-27T07:38:38.463Z,6.93
2023-04-27T07:41:07.329Z,6.96
2023-04-27T07:43:35.765Z,7.17
2023-04-27T07:46:05.698Z,7.30
2023-04-27T07:48:34.085Z,7.33
2023-04-27T07:51:02.624Z,7.47
2023-04-27T07:53:31.162Z,7.47
2023-04-27T07:55:59.414Z,7.46
2023-04-27T07:58:27.801Z,7.49
2023-04-27T08:00:56.075Z,7.73
2023-04-27T08:03:28.315Z,7.77
2023-04-27T08:06:00.200Z,7.75
2023-04-27T08:08:30.023Z,7.82
2023-04-27T08:10:58.499Z,7.91
2023-04-27T08:13:26.795Z,7.99
2023-04-27T08:15:58.355Z,7.93
2023-04-27T08:18:28.291Z,7.97
2023-04-27T08:20:56.752Z,7.95
2023-04-27T08:23:28.079Z,7.87
2023-04-27T08:25:56.512Z,7.88
2023-04-27T08:28:25.163Z,7.86
2023-04-27T08:30:53.485Z,8.02
2023-04-27T08:33:21.919Z,7.97
2023-04-27T08:35:51.663Z,8.02
2023-04-27T08:38:20.479Z,7.92
2023-04-27T08:40:48.880Z,7.83
2023-04-27T08:43:17.137Z,7.83
2023-04-27T08:45:50.467Z,7.83
2023-04-27T08:48:20.148Z,7.76
2023-04-27T08:50:53.865Z,7.87
2023-04-27T08:53:22.675Z,7.78
2023-04-27T08:55:51.368Z,7.86
2023-04-27T08:58:19.736Z,7.84
2023-04-27T09:00:50.722Z,7.90
2023-04-27T09:03:24.163Z,7.87
2023-04-27T09:06:04.483Z,7.80
2023-04-27T09:08:43.798Z,7.91
2023-04-27T09:11:12.488Z,7.96
2023-04-27T09:13:44.997Z,7.94
2023-04-27T09:16:14.669Z,8.09
2023-04-27T09:18:44.583Z,8.16
2023-04-27T09:21:23.263Z,8.26
2023-04-27T09:23:51.671Z,8.45
2023-04-27T09:26:23.813Z,8.66
2023-04-27T09:28:53.713Z,8.65
2023-04-27T09:31:22.702Z,8.53
2023-04-27T09:33:56.629Z,8.39
2023-04-27T09:36:27.238Z,8.29
2023-04-27T09:38:55.760Z,8.23
2023-04-27T09:41:24.338Z,8.23
2023-04-27T09:43:55.217Z,8.30
2023-04-27T09:46:26.449Z,8.26
2023-04-27T09:48:57.344Z,8.20
2023-04-27T09:51:28.722Z,8.25
2023-04-27T09:54:00.782Z,8.27
2023-04-27T09:59:11.819Z,8.45
2023-04-27T10:01:46.333Z,8.48
2023-04-27T10:04:31.069Z,8.51
2023-04-27T10:07:02.321Z,8.62
2023-04-27T10:09:38.503Z,8.82
2023-04-27T10:12:18.223Z,8.89
2023-04-27T10:14:54.200Z,9.10
2023-04-27T10:17:27.534Z,9.31
2023-04-27T10:19:58.596Z,9.48
2023-04-27T10:22:40.488Z,9.85
2023-04-27T10:25:27.593Z,10.07
2023-04-27T10:27:58.932Z,10.38
2023-04-27T10:30:32.309Z,10.21
2023-04-27T10:33:05.347Z,10.16
2023-04-27T10:35:34.908Z,9.99
2023-04-27T10:38:09.518Z,9.90
2023-04-27T10:40:39.056Z,9.77
2023-04-27T10:43:11.706Z,9.63
2023-04-27T10:45:40.102Z,9.50
2023-04-27T10:48:09.126Z,9.49
2023-04-27T10:50:37.459Z,9.92
2023-04-27T10:53:09.354Z,10.09
2023-04-27T10:55:38.029Z,10.66
2023-04-27T10:58:06.440Z,10.96
2023-04-27T11:00:36.652Z,11.20
2023-04-27T11:03:14.503Z,11.11
2023-04-27T11:05:44.738Z,11.43
2023-04-27T11:08:16.408Z,11.69
2023-04-27T11:10:47.147Z,11.51
2023-04-27T11:13:17.669Z,11.77
2023-04-27T11:15:47.948Z,11.62
2023-04-27T11:18:17.847Z,11.30
2023-04-27T11:20:49.315Z,10.95
2023-04-27T11:23:26.765Z,10.60
2023-04-27T11:25:55.343Z,10.44
2023-04-27T11:28:24.649Z,10.29
2023-04-27T11:30:59.347Z,10.18
2023-04-27T11:33:28.026Z,10.24
2023-04-27T11:35:56.602Z,9.90
2023-04-27T11:38:27.582Z,9.90
2023-04-27T11:41:04.906Z,10.08
2023-04-27T11:43:33.969Z,10.08
2023-04-27T11:46:04.001Z,10.02
2023-04-27T11:48:32.389Z,9.91
2023-04-27T11:51:01.317Z,9.93
2023-04-27T11:53:32.786Z,9.86
2023-04-27T11:56:02.202Z,9.88
2023-04-27T11:58:30.942Z,9.99
2023-04-27T12:00:59.454Z,9.97
2023-04-27T12:03:29.340Z,9.98
2023-04-27T12:06:07.320Z,9.90
2023-04-27T12:08:46.225Z,9.98
2023-04-27T12:11:15.053Z,10.32
2023-04-27T12:13:43.335Z,10.40
2023-04-27T12:16:11.722Z,10.33
2023-04-27T12:18:40.004Z,10.33
2023-04-27T12:21:08.718Z,10.11
2023-04-27T12:23:37.347Z,10.09
2023-04-27T12:26:06.977Z,9.97
2023-04-27T12:28:35.444Z,10.17
2023-04-27T12:31:04.886Z,10.04
2023-04-27T12:33:33.396Z,10.07
2023-04-27T12:36:01.659Z,10.09
2023-04-27T12:38:29.886Z,10.08
2023-04-27T12:40:59.506Z,10.13
2023-04-27T12:43:29.124Z,10.27
2023-04-27T12:45:57.431Z,10.24
2023-04-27T12:48:26.291Z,10.43
2023-04-27T12:50:54.572Z,10.57
2023-04-27T12:53:22.879Z,10.81
2023-04-27T12:55:51.264Z,11.06
2023-04-27T12:58:19.892Z,10.98
2023-04-27T13:00:49.713Z,10.89
2023-04-27T13:03:18.133Z,10.71
2023-04-27T13:05:46.460Z,10.84
2023-04-27T13:08:14.895Z,10.78
2023-04-27T13:10:43.275Z,10.94
2023-04-27T13:13:11.555Z,10.84
2023-04-27T13:15:40.066Z,10.88
2023-04-27T13:18:10.365Z,10.93
2023-04-27T13:20:39.087Z,10.98
2023-04-27T13:23:07.578Z,10.86
2023-04-27T13:25:36.020Z,10.63
2023-04-27T13:28:04.346Z,10.78
2023-04-27T13:30:32.803Z,11.02
2023-04-27T13:33:14.290Z,11.66
2023-04-27T13:35:48.515Z,11.91
2023-04-27T13:38:16.887Z,12.09
2023-04-27T13:40:45.323Z,12.42
2023-04-27T13:43:13.540Z,12.42
2023-04-27T13:45:42.594Z,12.46
2023-04-27T13:48:11.120Z,12.95
2023-04-27T13:50:39.473Z,13.11
2023-04-27T13:53:09.177Z,12.90
2023-04-27T13:55:37.499Z,12.95
2023-04-27T13:58:06.050Z,12.49
2023-04-27T14:00:34.800Z,12.32
2023-04-27T14:03:04.926Z,12.03
2023-04-27T14:05:33.492Z,11.99
2023-04-27T14:08:01.931Z,11.89
2023-04-27T14:10:31.731Z,12.31
2023-04-27T14:13:00.115Z,12.00
2023-04-27T14:15:29.089Z,12.11
2023-04-27T14:17:57.507Z,11.99
2023-04-27T14:20:27.919Z,11.70
2023-04-27T14:22:58.401Z,11.55
2023-04-27T14:25:27.256Z,11.32
2023-04-27T14:27:57.079Z,11.33
2023-04-27T14:30:25.319Z,11.18
2023-04-27T14:32:53.830Z,11.03
2023-04-27T14:35:23.701Z,10.86
2023-04-27T14:37:52.322Z,10.88
2023-04-27T14:40:20.956Z,10.88
2023-04-27T14:42:49.200Z,10.77
2023-04-27T14:45:18.977Z,10.74
2023-04-27T14:47:48.428Z,10.82
2023-04-27T14:50:16.805Z,10.57
2023-04-27T14:52:45.087Z,10.59
2023-04-27T14:55:15.182Z,10.60
2023-04-27T14:57:43.516Z,10.61
2023-04-27T15:00:14.559Z,10.63
2023-04-27T15:02:44.535Z,10.71
2023-04-27T15:05:12.833Z,10.49
2023-04-27T15:07:41.164Z,10.51
2023-04-27T15:10:10.445Z,10.43
2023-04-27T15:12:38.726Z,10.39
2023-04-27T15:15:10.511Z,10.37
2023-04-27T15:17:39.010Z,10.43
2023-04-27T15:20:10.738Z,10.39
2023-04-27T15:22:39.050Z,10.37
2023-04-27T15:25:08.385Z,10.38
2023-04-27T15:27:36.791Z,10.36
2023-04-27T15:30:06.050Z,10.40
2023-04-27T15:32:34.730Z,10.34
2023-04-27T15:35:04.489Z,10.40
2023-04-27T15:37:37.050Z,10.50
2023-04-27T15:40:07.480Z,10.65
2023-04-27T15:42:35.931Z,10.44
2023-04-27T15:45:04.355Z,10.44
2023-04-27T15:47:32.637Z,10.42
2023-04-27T15:50:01.020Z,10.31
2023-04-27T15:52:29.318Z,10.31
2023-04-27T15:54:58.943Z,10.31
2023-04-27T15:57:27.682Z,10.26
2023-04-27T15:59:55.995Z,10.26
2023-04-27T16:02:24.954Z,10.39
2023-04-27T16:05:15.133Z,10.53
2023-04-27T16:07:44.891Z,10.66
2023-04-27T16:10:14.688Z,10.80
2023-04-27T16:12:42.941Z,10.73
2023-04-27T16:15:12.026Z,10.82
2023-04-27T16:17:40.956Z,10.77
2023-04-27T16:20:10.208Z,10.89
2023-04-27T16:22:39.326Z,10.96
2023-04-27T16:25:10.666Z,11.03
2023-04-27T16:27:40.971Z,11.05
2023-04-27T16:30:10.217Z,10.90
2023-04-27T16:32:38.691Z,11.01
2023-04-27T16:35:08.105Z,10.97
2023-04-27T16:37:36.413Z,10.95
2023-04-27T16:40:07.647Z,10.94
2023-04-27T16:42:36.128Z,10.98
2023-04-27T16:45:09.120Z,11.01
2023-04-27T16:47:39.139Z,10.98
2023-04-27T16:50:07.908Z,11.00
2023-04-27T16:52:36.181Z,11.08
2023-04-27T16:55:04.971Z,10.92
2023-04-27T16:57:33.294Z,10.78
2023-04-27T17:00:01.889Z,10.88
2023-04-27T17:02:31.998Z,10.77
2023-04-27T17:05:00.687Z,10.67
2023-04-27T17:07:32.496Z,10.77
2023-04-27T17:10:00.945Z,10.69
2023-04-27T17:12:29.274Z,10.65
2023-04-27T17:14:57.555Z,10.51
2023-04-27T17:17:25.858Z,10.49
2023-04-27T17:19:55.561Z,10.47
2023-04-27T17:22:23.825Z,10.42
2023-04-27T17:24:52.135Z,10.49
2023-04-27T17:27:20.408Z,10.47
2023-04-27T17:29:49.010Z,10.33
2023-04-27T17:32:17.330Z,10.34
2023-04-27T17:34:46.367Z,10.24
2023-04-27T17:37:15.976Z,10.16
2023-04-27T17:39:44.218Z,10.13
2023-04-27T17:42:12.905Z,10.10
2023-04-27T17:44:42.328Z,10.07
2023-04-27T17:47:10.889Z,10.04
2023-04-27T17:49:39.152Z,9.98
2023-04-27T17:52:07.586Z,9.96
2023-04-27T17:54:37.199Z,9.91
2023-04-27T17:57:05.957Z,9.97
2023-04-27T17:59:34.257Z,9.89
2023-04-27T18:02:03.084Z,9.95
2023-04-27T18:04:31.745Z,9.84
2023-04-27T18:07:00.124Z,9.78
2023-04-27T18:09:30.092Z,9.72
2023-04-27T18:12:02.194Z,9.70
2023-04-27T18:14:30.485Z,9.67
2023-04-27T18:16:58.845Z,9.65
2023-04-27T18:19:27.130Z,9.62
2023-04-27T18:21:55.565Z,9.57
2023-04-27T18:24:23.823Z,9.54
2023-04-27T18:26:52.245Z,9.49
2023-04-27T18:29:22.031Z,9.41
2023-04-27T18:31:50.582Z,9.38
2023-04-27T18:34:18.863Z,9.33
2023-04-27T18:36:51.956Z,9.26
2023-04-27T18:39:20.747Z,9.23
2023-04-27T18:41:49.169Z,9.22
2023-04-27T18:44:17.593Z,9.18
2023-04-27T18:46:47.160Z,9.13
2023-04-27T18:49:15.609Z,9.05
2023-04-27T18:51:44.075Z,8.98
2023-04-27T18:54:12.842Z,8.91
2023-04-27T18:56:41.165Z,8.86
2023-04-27T18:59:09.450Z,8.79
2023-04-27T19:01:38.226Z,8.75
2023-04-27T19:04:08.317Z,8.73
2023-04-27T19:06:36.738Z,8.69
2023-04-27T19:09:05.057Z,8.67
2023-04-27T19:11:33.453Z,8.70
2023-04-27T19:14:01.707Z,8.65
2023-04-27T19:16:30.339Z,8.56
2023-04-27T19:18:58.754Z,8.48
2023-04-27T19:21:28.458Z,8.46
2023-04-27T19:23:56.835Z,8.39
2023-04-27T19:26:25.081Z,8.32
2023-04-27T19:28:53.417Z,8.23
2023-04-27T19:31:21.752Z,8.20
2023-04-27T19:33:55.255Z,8.15
2023-04-27T19:36:24.061Z,8.12
2023-04-27T19:38:53.771Z,8.11
2023-04-27T19:41:22.046Z,8.10
2023-04-27T19:43:50.354Z,8.07
2023-04-27T19:46:18.731Z,8.05
2023-04-27T19:48:47.164Z,8.03
2023-04-27T19:51:15.695Z,7.99
2023-04-27T19:53:44.008Z,7.94
2023-04-27T19:56:13.691Z,7.91
2023-04-27T19:58:41.981Z,7.90
2023-04-27T20:01:12.970Z,7.89
2023-04-27T20:03:42.334Z,7.85
2023-04-27T20:06:11.268Z,7.89
2023-04-27T20:08:39.834Z,7.88
2023-04-27T20:11:08.458Z,7.88
2023-04-27T20:13:38.240Z,7.85
2023-04-27T20:16:06.732Z,7.85
2023-04-27T20:18:35.031Z,7.84
2023-04-27T20:21:03.396Z,7.86
2023-04-27T20:23:31.957Z,7.91
2023-04-27T20:26:00.436Z,7.92
2023-04-27T20:28:30.343Z,7.93
2023-04-27T20:31:00.475Z,7.88
2023-04-27T20:33:28.853Z,7.84
2023-04-27T20:36:03.725Z,7.80
2023-04-27T20:38:38.544Z,7.75
2023-04-27T20:41:06.867Z,7.71
2023-04-27T20:43:35.373Z,7.68
2023-04-27T20:46:05.045Z,7.64
2023-04-27T20:48:33.516Z,7.59
2023-04-27T20:51:01.996Z,7.55
2023-04-27T20:53:30.639Z,7.52
2023-04-27T20:55:59.076Z,7.47
2023-04-27T20:58:27.386Z,7.43
2023-04-27T21:00:55.752Z,7.41
2023-04-27T21:03:25.854Z,7.35
2023-04-27T21:05:54.321Z,7.29
2023-04-27T21:08:22.640Z,7.24
2023-04-27T21:10:52.253Z,7.18
2023-04-27T21:13:20.628Z,7.10
2023-04-27T21:15:48.903Z,7.04
2023-04-27T21:18:29.054Z,6.98
2023-04-27T21:21:00.239Z,6.91
2023-04-27T21:23:28.781Z,6.84
2023-04-27T21:25:57.114Z,6.75
2023-04-27T21:28:25.445Z,6.69
2023-04-27T21:30:53.902Z,6.63
2023-04-27T21:33:22.432Z,6.60
2023-04-27T21:35:50.671Z,6.57
2023-04-27T21:38:20.424Z,6.53
2023-04-27T21:40:48.665Z,6.51
2023-04-27T21:43:16.966Z,6.50
2023-04-27T21:45:45.572Z,6.49
2023-04-27T21:48:14.033Z,6.47
2023-04-27T21:50:42.304Z,6.45
2023-04-27T21:53:10.623Z,6.39
2023-04-27T21:55:40.232Z,6.36
2023-04-27T21:58:08.518Z,6.29
2023-04-27T22:00:36.765Z,6.21
2023-04-27T22:03:05.392Z,6.20
2023-04-27T22:05:37.035Z,6.18
2023-04-27T22:08:05.462Z,6.14
2023-04-27T22:10:33.701Z,6.11
2023-04-27T22:13:15.064Z,6.07
2023-04-27T22:15:47.903Z,6.02
2023-04-27T22:18:16.218Z,5.95
2023-04-27T22:20:44.579Z,5.90
2023-04-27T22:23:12.808Z,5.86
2023-04-27T22:25:42.606Z,5.85
2023-04-27T22:28:12.428Z,5.85
2023-04-27T22:30:41.985Z,5.83
2023-04-27T22:33:11.092Z,5.83
2023-04-27T22:35:39.744Z,5.81
2023-04-27T22:38:08.175Z,5.82
2023-04-27T22:40:36.999Z,5.79
2023-04-27T22:43:05.213Z,5.76
2023-04-27T22:45:36.127Z,5.73
2023-04-27T22:48:06.725Z,5.71
2023-04-27T22:50:35.153Z,5.70
2023-04-27T22:53:03.651Z,5.69
2023-04-27T22:55:31.932Z,5.67
2023-04-27T22:58:00.201Z,5.62
2023-04-27T23:00:28.513Z,5.62
2023-04-27T23:02:58.400Z,5.56
2023-04-27T23:05:27.171Z,5.52
2023-04-27T23:07:55.530Z,5.50
2023-04-27T23:10:23.900Z,5.48
2023-04-27T23:12:54.676Z,5.45
2023-04-27T23:15:28.880Z,5.45
2023-04-27T23:17:58.600Z,5.52
2023-04-27T23:20:29.043Z,5.56
2023-04-27T23:22:57.629Z,5.54
2023-04-27T23:25:25.889Z,5.47
2023-04-27T23:27:54.267Z,5.44
2023-04-27T23:30:22.872Z,5.44
2023-04-27T23:32:51.205Z,5.40
2023-04-27T23:35:21.184Z,5.34
2023-04-27T23:37:49.624Z,5.32
2023-04-27T23:40:17.938Z,5.31
2023-04-27T23:42:46.203Z,5.28
2023-04-27T23:45:14.522Z,5.22
2023-04-27T23:47:43.113Z,5.20
2023-04-27T23:50:11.720Z,5.17
2023-04-27T23:52:41.338Z,5.14
2023-04-27T23:55:10.293Z,5.11
2023-04-27T23:57:38.536Z,5.10
